sensor_id;sensor_type;location;lat;lon;timestamp;temperature;humidity
49413;DHT22;35493;50.276;9.372;2023-03-19T00:01:43;10.30;81.60
49413;DHT22;35493;50.276;9.372;2023-03-19T00:04:17;10.30;81.60
49413;DHT22;35493;50.276;9.372;2023-03-19T00:06:50;10.20;81.70
49413;DHT22;35493;50.276;9.372;2023-03-19T00:09:23;10.30;81.80
49413;DHT22;35493;50.276;9.372;2023-03-19T00:11:58;10.20;81.90
49413;DHT22;35493;50.276;9.372;2023-03-19T00:14:31;10.20;81.80
49413;DHT22;35493;50.276;9.372;2023-03-19T00:17:13;10.20;81.80
49413;DHT22;35493;50.276;9.372;2023-03-19T00:19:46;10.20;81.80
49413;DHT22;35493;50.276;9.372;2023-03-19T00:22:19;10.20;81.90
49413;DHT22;35493;50.276;9.372;2023-03-19T00:24:52;10.20;81.90
49413;DHT22;35493;50.276;9.372;2023-03-19T00:27:25;10.20;81.90
49413;DHT22;35493;50.276;9.372;2023-03-19T00:29:58;10.20;81.90
49413;DHT22;35493;50.276;9.372;2023-03-19T00:32:35;10.20;81.90
49413;DHT22;35493;50.276;9.372;2023-03-19T00:35:08;10.20;82.00
49413;DHT22;35493;50.276;9.372;2023-03-19T00:37:42;10.20;82.00
49413;DHT22;35493;50.276;9.372;2023-03-19T00:40:15;10.10;82.10
49413;DHT22;35493;50.276;9.372;2023-03-19T00:42:49;10.10;82.20
49413;DHT22;35493;50.276;9.372;2023-03-19T00:45:23;10.10;82.30
49413;DHT22;35493;50.276;9.372;2023-03-19T00:48:05;10.10;82.30
49413;DHT22;35493;50.276;9.372;2023-03-19T00:50:38;10.10;82.30
49413;DHT22;35493;50.276;9.372;2023-03-19T00:53:11;10.10;82.30
49413;DHT22;35493;50.276;9.372;2023-03-19T00:55:44;10.10;82.30
49413;DHT22;35493;50.276;9.372;2023-03-19T00:58:18;10.10;82.40
49413;DHT22;35493;50.276;9.372;2023-03-19T01:00:52;10.00;82.40
49413;DHT22;35493;50.276;9.372;2023-03-19T01:03:27;10.00;82.60
49413;DHT22;35493;50.276;9.372;2023-03-19T01:06:00;10.00;82.60
49413;DHT22;35493;50.276;9.372;2023-03-19T01:08:27;10.00;82.60
49413;DHT22;35493;50.276;9.372;2023-03-19T01:11:06;10.00;82.60
49413;DHT22;35493;50.276;9.372;2023-03-19T01:13:40;10.00;82.50
49413;DHT22;35493;50.276;9.372;2023-03-19T01:16:15;9.90;82.50
49413;DHT22;35493;50.276;9.372;2023-03-19T01:18:50;9.90;82.50
49413;DHT22;35493;50.276;9.372;2023-03-19T01:21:23;9.90;82.40
49413;DHT22;35493;50.276;9.372;2023-03-19T01:23:57;9.90;82.60
49413;DHT22;35493;50.276;9.372;2023-03-19T01:26:30;9.90;82.70
49413;DHT22;35493;50.276;9.372;2023-03-19T01:29:14;9.80;82.80
49413;DHT22;35493;50.276;9.372;2023-03-19T01:31:49;9.80;82.80
49413;DHT22;35493;50.276;9.372;2023-03-19T01:34:48;9.90;82.80
49413;DHT22;35493;50.276;9.372;2023-03-19T01:37:22;9.90;82.70
49413;DHT22;35493;50.276;9.372;2023-03-19T01:39:55;9.80;82.80
49413;DHT22;35493;50.276;9.372;2023-03-19T01:42:28;9.70;83.00
49413;DHT22;35493;50.276;9.372;2023-03-19T01:45:31;9.70;83.10
49413;DHT22;35493;50.276;9.372;2023-03-19T01:48:43;9.70;83.00
49413;DHT22;35493;50.276;9.372;2023-03-19T01:51:29;9.70;82.90
49413;DHT22;35493;50.276;9.372;2023-03-19T01:54:35;9.70;82.80
49413;DHT22;35493;50.276;9.372;2023-03-19T01:57:34;9.60;82.90
49413;DHT22;35493;50.276;9.372;2023-03-19T02:00:21;9.60;82.90
49413;DHT22;35493;50.276;9.372;2023-03-19T02:02:58;9.60;83.00
49413;DHT22;35493;50.276;9.372;2023-03-19T02:05:56;9.60;83.00
49413;DHT22;35493;50.276;9.372;2023-03-19T02:08:35;9.60;83.10
49413;DHT22;35493;50.276;9.372;2023-03-19T02:11:09;9.50;83.20
49413;DHT22;35493;50.276;9.372;2023-03-19T02:13:44;9.50;83.20
49413;DHT22;35493;50.276;9.372;2023-03-19T02:16:17;9.50;83.30
49413;DHT22;35493;50.276;9.372;2023-03-19T02:18:51;9.50;83.30
49413;DHT22;35493;50.276;9.372;2023-03-19T02:21:25;9.50;83.20
49413;DHT22;35493;50.276;9.372;2023-03-19T02:24:04;9.50;83.20
49413;DHT22;35493;50.276;9.372;2023-03-19T02:27:00;9.50;83.20
49413;DHT22;35493;50.276;9.372;2023-03-19T02:29:34;9.50;83.20
49413;DHT22;35493;50.276;9.372;2023-03-19T02:32:07;9.40;83.20
49413;DHT22;35493;50.276;9.372;2023-03-19T02:34:42;9.40;83.20
49413;DHT22;35493;50.276;9.372;2023-03-19T02:37:20;9.40;83.30
49413;DHT22;35493;50.276;9.372;2023-03-19T02:39:57;9.40;83.30
49413;DHT22;35493;50.276;9.372;2023-03-19T02:42:33;9.40;83.20
49413;DHT22;35493;50.276;9.372;2023-03-19T02:45:07;9.40;83.30
49413;DHT22;35493;50.276;9.372;2023-03-19T02:47:47;9.30;83.40
49413;DHT22;35493;50.276;9.372;2023-03-19T02:50:20;9.30;83.50
49413;DHT22;35493;50.276;9.372;2023-03-19T02:52:54;9.30;83.50
49413;DHT22;35493;50.276;9.372;2023-03-19T02:55:27;9.20;83.50
49413;DHT22;35493;50.276;9.372;2023-03-19T02:58:02;9.30;83.30
49413;DHT22;35493;50.276;9.372;2023-03-19T03:00:36;9.20;83.40
49413;DHT22;35493;50.276;9.372;2023-03-19T03:03:09;9.20;83.50
49413;DHT22;35493;50.276;9.372;2023-03-19T03:05:42;9.20;83.60
49413;DHT22;35493;50.276;9.372;2023-03-19T03:08:15;9.20;83.60
49413;DHT22;35493;50.276;9.372;2023-03-19T03:10:49;9.20;83.60
49413;DHT22;35493;50.276;9.372;2023-03-19T03:13:24;9.30;83.60
49413;DHT22;35493;50.276;9.372;2023-03-19T03:15:58;9.30;83.60
49413;DHT22;35493;50.276;9.372;2023-03-19T03:18:31;9.30;83.50
49413;DHT22;35493;50.276;9.372;2023-03-19T03:21:04;9.30;83.60
49413;DHT22;35493;50.276;9.372;2023-03-19T03:23:38;9.20;83.70
49413;DHT22;35493;50.276;9.372;2023-03-19T03:26:12;9.20;83.70
49413;DHT22;35493;50.276;9.372;2023-03-19T03:28:47;9.20;83.70
49413;DHT22;35493;50.276;9.372;2023-03-19T03:31:21;9.20;83.70
49413;DHT22;35493;50.276;9.372;2023-03-19T03:33:54;9.20;83.70
49413;DHT22;35493;50.276;9.372;2023-03-19T03:36:27;9.20;83.60
49413;DHT22;35493;50.276;9.372;2023-03-19T03:39:00;9.20;83.70
49413;DHT22;35493;50.276;9.372;2023-03-19T03:41:34;9.20;83.70
49413;DHT22;35493;50.276;9.372;2023-03-19T03:44:03;9.20;83.70
49413;DHT22;35493;50.276;9.372;2023-03-19T03:46:38;9.10;83.70
49413;DHT22;35493;50.276;9.372;2023-03-19T03:49:12;9.10;83.80
49413;DHT22;35493;50.276;9.372;2023-03-19T03:51:52;9.10;83.70
49413;DHT22;35493;50.276;9.372;2023-03-19T03:54:25;9.20;83.80
49413;DHT22;35493;50.276;9.372;2023-03-19T03:56:58;9.10;83.80
49413;DHT22;35493;50.276;9.372;2023-03-19T03:59:34;9.10;83.80
49413;DHT22;35493;50.276;9.372;2023-03-19T04:02:07;9.10;83.80
49413;DHT22;35493;50.276;9.372;2023-03-19T04:04:42;9.10;83.80
49413;DHT22;35493;50.276;9.372;2023-03-19T04:07:15;9.10;83.80
49413;DHT22;35493;50.276;9.372;2023-03-19T04:09:56;9.00;83.90
49413;DHT22;35493;50.276;9.372;2023-03-19T04:12:29;9.00;83.90
49413;DHT22;35493;50.276;9.372;2023-03-19T04:15:07;9.00;84.00
49413;DHT22;35493;50.276;9.372;2023-03-19T04:17:44;8.90;84.00
49413;DHT22;35493;50.276;9.372;2023-03-19T04:20:18;8.90;83.90
49413;DHT22;35493;50.276;9.372;2023-03-19T04:22:53;8.90;83.90
49413;DHT22;35493;50.276;9.372;2023-03-19T04:25:27;8.90;83.90
49413;DHT22;35493;50.276;9.372;2023-03-19T04:28:00;8.90;84.00
49413;DHT22;35493;50.276;9.372;2023-03-19T04:30:36;8.90;84.00
49413;DHT22;35493;50.276;9.372;2023-03-19T04:33:10;8.80;84.00
49413;DHT22;35493;50.276;9.372;2023-03-19T04:35:43;8.80;83.90
49413;DHT22;35493;50.276;9.372;2023-03-19T04:38:17;8.80;83.90
49413;DHT22;35493;50.276;9.372;2023-03-19T04:40:51;8.80;83.90
49413;DHT22;35493;50.276;9.372;2023-03-19T04:43:25;8.80;83.80
49413;DHT22;35493;50.276;9.372;2023-03-19T04:46:09;8.80;83.90
49413;DHT22;35493;50.276;9.372;2023-03-19T04:48:49;8.70;83.90
49413;DHT22;35493;50.276;9.372;2023-03-19T04:51:23;8.70;84.00
49413;DHT22;35493;50.276;9.372;2023-03-19T04:53:56;8.70;84.00
49413;DHT22;35493;50.276;9.372;2023-03-19T04:56:29;8.70;84.00
49413;DHT22;35493;50.276;9.372;2023-03-19T04:59:03;8.70;84.00
49413;DHT22;35493;50.276;9.372;2023-03-19T05:01:39;8.70;84.00
49413;DHT22;35493;50.276;9.372;2023-03-19T05:04:17;8.60;84.10
49413;DHT22;35493;50.276;9.372;2023-03-19T05:06:53;8.70;84.10
49413;DHT22;35493;50.276;9.372;2023-03-19T05:09:28;8.70;84.00
49413;DHT22;35493;50.276;9.372;2023-03-19T05:12:03;8.70;84.10
49413;DHT22;35493;50.276;9.372;2023-03-19T05:14:42;8.70;84.20
49413;DHT22;35493;50.276;9.372;2023-03-19T05:17:23;8.70;84.30
49413;DHT22;35493;50.276;9.372;2023-03-19T05:20:26;8.70;84.40
49413;DHT22;35493;50.276;9.372;2023-03-19T05:23:04;8.70;84.50
49413;DHT22;35493;50.276;9.372;2023-03-19T05:25:42;8.70;84.50
49413;DHT22;35493;50.276;9.372;2023-03-19T05:28:21;8.70;84.50
49413;DHT22;35493;50.276;9.372;2023-03-19T05:30:55;8.70;84.40
49413;DHT22;35493;50.276;9.372;2023-03-19T05:33:37;8.70;84.50
49413;DHT22;35493;50.276;9.372;2023-03-19T05:36:11;8.70;84.60
49413;DHT22;35493;50.276;9.372;2023-03-19T05:39:01;8.60;84.70
49413;DHT22;35493;50.276;9.372;2023-03-19T05:41:36;8.70;84.80
49413;DHT22;35493;50.276;9.372;2023-03-19T05:44:15;8.70;84.80
49413;DHT22;35493;50.276;9.372;2023-03-19T05:46:57;8.70;84.80
49413;DHT22;35493;50.276;9.372;2023-03-19T05:49:42;8.70;84.70
49413;DHT22;35493;50.276;9.372;2023-03-19T05:52:15;8.70;84.70
49413;DHT22;35493;50.276;9.372;2023-03-19T05:54:49;8.70;84.80
49413;DHT22;35493;50.276;9.372;2023-03-19T05:57:31;8.70;84.80
49413;DHT22;35493;50.276;9.372;2023-03-19T06:00:25;8.70;84.80
49413;DHT22;35493;50.276;9.372;2023-03-19T06:02:58;8.70;84.80
49413;DHT22;35493;50.276;9.372;2023-03-19T06:05:39;8.70;84.80
49413;DHT22;35493;50.276;9.372;2023-03-19T06:08:21;8.70;84.90
49413;DHT22;35493;50.276;9.372;2023-03-19T06:11:15;8.70;85.00
49413;DHT22;35493;50.276;9.372;2023-03-19T06:14:36;8.70;85.10
49413;DHT22;35493;50.276;9.372;2023-03-19T06:17:30;8.70;85.10
49413;DHT22;35493;50.276;9.372;2023-03-19T06:20:08;8.70;85.30
49413;DHT22;35493;50.276;9.372;2023-03-19T06:22:44;8.70;85.50
49413;DHT22;35493;50.276;9.372;2023-03-19T06:25:20;8.70;85.40
49413;DHT22;35493;50.276;9.372;2023-03-19T06:27:47;8.80;85.50
49413;DHT22;35493;50.276;9.372;2023-03-19T06:30:28;8.80;85.40
49413;DHT22;35493;50.276;9.372;2023-03-19T06:33:06;8.80;85.20
49413;DHT22;35493;50.276;9.372;2023-03-19T06:35:39;8.80;85.20
49413;DHT22;35493;50.276;9.372;2023-03-19T06:38:15;8.90;85.20
49413;DHT22;35493;50.276;9.372;2023-03-19T06:40:48;8.90;85.10
49413;DHT22;35493;50.276;9.372;2023-03-19T06:43:21;8.90;85.20
49413;DHT22;35493;50.276;9.372;2023-03-19T06:45:54;8.90;85.30
49413;DHT22;35493;50.276;9.372;2023-03-19T06:48:28;8.90;85.20
49413;DHT22;35493;50.276;9.372;2023-03-19T06:51:08;8.90;85.30
49413;DHT22;35493;50.276;9.372;2023-03-19T06:53:43;9.00;84.90
49413;DHT22;35493;50.276;9.372;2023-03-19T06:56:16;9.00;85.10
49413;DHT22;35493;50.276;9.372;2023-03-19T06:58:49;9.00;84.90
49413;DHT22;35493;50.276;9.372;2023-03-19T07:01:22;9.00;85.10
49413;DHT22;35493;50.276;9.372;2023-03-19T07:03:49;9.00;85.10
49413;DHT22;35493;50.276;9.372;2023-03-19T07:06:22;9.10;85.00
49413;DHT22;35493;50.276;9.372;2023-03-19T07:08:57;9.10;84.90
49413;DHT22;35493;50.276;9.372;2023-03-19T07:11:30;9.10;84.90
49413;DHT22;35493;50.276;9.372;2023-03-19T07:14:04;9.10;84.90
49413;DHT22;35493;50.276;9.372;2023-03-19T07:16:37;9.10;85.10
49413;DHT22;35493;50.276;9.372;2023-03-19T07:19:10;9.20;85.00
49413;DHT22;35493;50.276;9.372;2023-03-19T07:21:43;9.20;85.00
49413;DHT22;35493;50.276;9.372;2023-03-19T07:24:19;9.20;84.90
49413;DHT22;35493;50.276;9.372;2023-03-19T07:26:52;9.20;84.90
49413;DHT22;35493;50.276;9.372;2023-03-19T07:29:26;9.20;84.80
49413;DHT22;35493;50.276;9.372;2023-03-19T07:31:59;9.30;84.60
49413;DHT22;35493;50.276;9.372;2023-03-19T07:34:32;9.30;84.60
49413;DHT22;35493;50.276;9.372;2023-03-19T07:37:05;9.30;84.70
49413;DHT22;35493;50.276;9.372;2023-03-19T07:39:40;9.40;84.70
49413;DHT22;35493;50.276;9.372;2023-03-19T07:42:13;9.30;84.60
49413;DHT22;35493;50.276;9.372;2023-03-19T07:44:46;9.30;84.60
49413;DHT22;35493;50.276;9.372;2023-03-19T07:47:19;9.40;84.60
49413;DHT22;35493;50.276;9.372;2023-03-19T07:50:00;9.40;84.60
49413;DHT22;35493;50.276;9.372;2023-03-19T07:52:34;9.40;84.60
49413;DHT22;35493;50.276;9.372;2023-03-19T07:55:10;9.40;84.60
49413;DHT22;35493;50.276;9.372;2023-03-19T07:57:43;9.40;84.50
49413;DHT22;35493;50.276;9.372;2023-03-19T08:00:17;9.50;84.40
49413;DHT22;35493;50.276;9.372;2023-03-19T08:02:50;9.50;84.00
49413;DHT22;35493;50.276;9.372;2023-03-19T08:05:23;9.50;84.60
49413;DHT22;35493;50.276;9.372;2023-03-19T08:07:56;9.60;84.20
49413;DHT22;35493;50.276;9.372;2023-03-19T08:10:31;9.60;83.70
49413;DHT22;35493;50.276;9.372;2023-03-19T08:13:04;9.60;83.60
49413;DHT22;35493;50.276;9.372;2023-03-19T08:15:38;9.70;84.10
49413;DHT22;35493;50.276;9.372;2023-03-19T08:18:11;9.70;83.60
49413;DHT22;35493;50.276;9.372;2023-03-19T08:20:45;9.70;84.20
49413;DHT22;35493;50.276;9.372;2023-03-19T08:23:18;9.80;84.20
49413;DHT22;35493;50.276;9.372;2023-03-19T08:25:53;9.80;83.30
49413;DHT22;35493;50.276;9.372;2023-03-19T08:28:27;9.90;83.50
49413;DHT22;35493;50.276;9.372;2023-03-19T08:31:06;9.90;83.10
49413;DHT22;35493;50.276;9.372;2023-03-19T08:33:40;9.90;83.10
49413;DHT22;35493;50.276;9.372;2023-03-19T08:36:14;9.90;83.20
49413;DHT22;35493;50.276;9.372;2023-03-19T08:38:47;9.90;83.40
49413;DHT22;35493;50.276;9.372;2023-03-19T08:41:27;9.90;83.90
49413;DHT22;35493;50.276;9.372;2023-03-19T08:44:00;9.90;83.40
49413;DHT22;35493;50.276;9.372;2023-03-19T08:46:33;10.00;84.00
49413;DHT22;35493;50.276;9.372;2023-03-19T08:49:06;10.10;84.00
49413;DHT22;35493;50.276;9.372;2023-03-19T08:51:46;10.10;83.90
49413;DHT22;35493;50.276;9.372;2023-03-19T08:54:21;10.10;83.80
49413;DHT22;35493;50.276;9.372;2023-03-19T08:56:49;10.20;83.70
49413;DHT22;35493;50.276;9.372;2023-03-19T08:59:22;10.20;83.70
49413;DHT22;35493;50.276;9.372;2023-03-19T09:01:55;10.20;83.70
49413;DHT22;35493;50.276;9.372;2023-03-19T09:04:28;10.20;83.70
49413;DHT22;35493;50.276;9.372;2023-03-19T09:07:01;10.30;83.50
49413;DHT22;35493;50.276;9.372;2023-03-19T09:09:34;10.40;83.40
49413;DHT22;35493;50.276;9.372;2023-03-19T09:12:11;10.50;83.40
49413;DHT22;35493;50.276;9.372;2023-03-19T09:14:44;10.70;83.00
49413;DHT22;35493;50.276;9.372;2023-03-19T09:17:18;10.80;82.90
49413;DHT22;35493;50.276;9.372;2023-03-19T09:19:51;11.00;82.60
49413;DHT22;35493;50.276;9.372;2023-03-19T09:22:24;11.10;82.40
49413;DHT22;35493;50.276;9.372;2023-03-19T09:24:57;11.30;82.00
49413;DHT22;35493;50.276;9.372;2023-03-19T09:27:32;11.50;81.70
49413;DHT22;35493;50.276;9.372;2023-03-19T09:30:06;11.70;81.40
49413;DHT22;35493;50.276;9.372;2023-03-19T09:32:42;11.70;81.10
49413;DHT22;35493;50.276;9.372;2023-03-19T09:35:09;11.90;80.90
49413;DHT22;35493;50.276;9.372;2023-03-19T09:37:42;12.00;80.60
49413;DHT22;35493;50.276;9.372;2023-03-19T09:40:21;12.00;80.20
49413;DHT22;35493;50.276;9.372;2023-03-19T09:43:04;12.10;80.30
49413;DHT22;35493;50.276;9.372;2023-03-19T09:45:44;12.10;79.80
49413;DHT22;35493;50.276;9.372;2023-03-19T09:48:30;12.20;79.50
49413;DHT22;35493;50.276;9.372;2023-03-19T09:51:09;12.30;78.80
49413;DHT22;35493;50.276;9.372;2023-03-19T09:53:50;12.50;78.50
49413;DHT22;35493;50.276;9.372;2023-03-19T09:56:26;12.70;77.80
49413;DHT22;35493;50.276;9.372;2023-03-19T09:59:01;12.90;77.70
49413;DHT22;35493;50.276;9.372;2023-03-19T10:01:36;13.20;76.30
49413;DHT22;35493;50.276;9.372;2023-03-19T10:04:24;13.30;76.40
49413;DHT22;35493;50.276;9.372;2023-03-19T10:07:05;13.40;75.90
49413;DHT22;35493;50.276;9.372;2023-03-19T10:09:51;13.60;75.90
49413;DHT22;35493;50.276;9.372;2023-03-19T10:12:38;13.70;74.70
49413;DHT22;35493;50.276;9.372;2023-03-19T10:15:20;13.90;74.30
49413;DHT22;35493;50.276;9.372;2023-03-19T10:17:57;14.10;73.90
49413;DHT22;35493;50.276;9.372;2023-03-19T10:20:45;14.20;73.00
49413;DHT22;35493;50.276;9.372;2023-03-19T10:23:41;14.20;73.10
49413;DHT22;35493;50.276;9.372;2023-03-19T10:26:18;14.20;72.00
49413;DHT22;35493;50.276;9.372;2023-03-19T10:28:58;14.10;71.30
49413;DHT22;35493;50.276;9.372;2023-03-19T10:31:44;14.20;71.00
49413;DHT22;35493;50.276;9.372;2023-03-19T10:34:28;14.20;72.00
49413;DHT22;35493;50.276;9.372;2023-03-19T10:37:04;14.30;71.60
49413;DHT22;35493;50.276;9.372;2023-03-19T10:39:41;14.30;71.40
49413;DHT22;35493;50.276;9.372;2023-03-19T10:42:25;14.40;71.00
49413;DHT22;35493;50.276;9.372;2023-03-19T10:45:12;14.50;71.40
49413;DHT22;35493;50.276;9.372;2023-03-19T10:47:52;14.50;70.80
49413;DHT22;35493;50.276;9.372;2023-03-19T10:50:46;14.50;70.60
49413;DHT22;35493;50.276;9.372;2023-03-19T10:53:28;14.60;70.40
49413;DHT22;35493;50.276;9.372;2023-03-19T10:56:04;14.60;70.30
49413;DHT22;35493;50.276;9.372;2023-03-19T10:58:37;14.60;70.40
49413;DHT22;35493;50.276;9.372;2023-03-19T11:01:12;14.60;70.30
49413;DHT22;35493;50.276;9.372;2023-03-19T11:03:51;14.70;70.10
49413;DHT22;35493;50.276;9.372;2023-03-19T11:06:31;14.70;69.60
49413;DHT22;35493;50.276;9.372;2023-03-19T11:09:13;14.80;69.90
49413;DHT22;35493;50.276;9.372;2023-03-19T11:11:49;14.90;69.90
49413;DHT22;35493;50.276;9.372;2023-03-19T11:14:26;14.90;69.40
49413;DHT22;35493;50.276;9.372;2023-03-19T11:17:05;15.00;69.00
49413;DHT22;35493;50.276;9.372;2023-03-19T11:19:42;15.00;69.00
49413;DHT22;35493;50.276;9.372;2023-03-19T11:22:21;15.10;68.70
49413;DHT22;35493;50.276;9.372;2023-03-19T11:24:56;15.10;69.10
49413;DHT22;35493;50.276;9.372;2023-03-19T11:27:33;15.10;68.20
49413;DHT22;35493;50.276;9.372;2023-03-19T11:30:17;15.20;68.10
49413;DHT22;35493;50.276;9.372;2023-03-19T11:36:22;15.10;68.10
49413;DHT22;35493;50.276;9.372;2023-03-19T11:39:17;15.10;68.00
49413;DHT22;35493;50.276;9.372;2023-03-19T11:42:07;15.10;68.10
49413;DHT22;35493;50.276;9.372;2023-03-19T11:44:52;15.10;67.20
49413;DHT22;35493;50.276;9.372;2023-03-19T11:47:31;15.20;67.40
49413;DHT22;35493;50.276;9.372;2023-03-19T11:50:15;15.20;66.90
49413;DHT22;35493;50.276;9.372;2023-03-19T11:53:02;15.30;66.70
49413;DHT22;35493;50.276;9.372;2023-03-19T11:55:45;15.40;66.70
49413;DHT22;35493;50.276;9.372;2023-03-19T11:58:57;15.40;66.50
49413;DHT22;35493;50.276;9.372;2023-03-19T12:01:54;15.50;65.70
49413;DHT22;35493;50.276;9.372;2023-03-19T12:04:38;15.60;65.90
49413;DHT22;35493;50.276;9.372;2023-03-19T12:07:23;15.70;65.50
49413;DHT22;35493;50.276;9.372;2023-03-19T12:10:15;15.80;66.20
49413;DHT22;35493;50.276;9.372;2023-03-19T12:13:12;15.70;66.40
49413;DHT22;35493;50.276;9.372;2023-03-19T12:15:55;15.80;65.80
49413;DHT22;35493;50.276;9.372;2023-03-19T12:19:03;15.80;64.70
49413;DHT22;35493;50.276;9.372;2023-03-19T12:21:53;15.90;66.00
49413;DHT22;35493;50.276;9.372;2023-03-19T12:24:39;15.90;65.00
49413;DHT22;35493;50.276;9.372;2023-03-19T12:27:23;15.90;63.80
49413;DHT22;35493;50.276;9.372;2023-03-19T12:30:07;16.00;63.90
49413;DHT22;35493;50.276;9.372;2023-03-19T12:33:10;16.10;63.40
49413;DHT22;35493;50.276;9.372;2023-03-19T12:36:08;16.10;64.90
49413;DHT22;35493;50.276;9.372;2023-03-19T12:38:44;16.20;62.60
49413;DHT22;35493;50.276;9.372;2023-03-19T12:41:21;16.30;63.40
49413;DHT22;35493;50.276;9.372;2023-03-19T12:43:59;16.40;62.00
49413;DHT22;35493;50.276;9.372;2023-03-19T12:46:37;16.40;61.80
49413;DHT22;35493;50.276;9.372;2023-03-19T12:49:23;16.40;61.70
49413;DHT22;35493;50.276;9.372;2023-03-19T12:52:02;16.40;62.40
49413;DHT22;35493;50.276;9.372;2023-03-19T12:54:38;16.30;61.90
49413;DHT22;35493;50.276;9.372;2023-03-19T12:57:17;16.10;62.30
49413;DHT22;35493;50.276;9.372;2023-03-19T12:59:59;16.00;63.10
49413;DHT22;35493;50.276;9.372;2023-03-19T13:02:37;15.90;62.80
49413;DHT22;35493;50.276;9.372;2023-03-19T13:05:18;15.90;62.50
49413;DHT22;35493;50.276;9.372;2023-03-19T13:08:00;15.80;62.30
49413;DHT22;35493;50.276;9.372;2023-03-19T13:10:34;15.90;63.40
49413;DHT22;35493;50.276;9.372;2023-03-19T13:13:21;15.90;62.40
49413;DHT22;35493;50.276;9.372;2023-03-19T13:16:05;15.90;62.10
49413;DHT22;35493;50.276;9.372;2023-03-19T13:18:47;15.90;63.00
49413;DHT22;35493;50.276;9.372;2023-03-19T13:21:28;16.00;61.90
49413;DHT22;35493;50.276;9.372;2023-03-19T13:24:07;16.00;62.10
49413;DHT22;35493;50.276;9.372;2023-03-19T13:26:45;16.10;62.10
49413;DHT22;35493;50.276;9.372;2023-03-19T13:29:20;16.10;62.50
49413;DHT22;35493;50.276;9.372;2023-03-19T13:32:00;16.10;62.70
49413;DHT22;35493;50.276;9.372;2023-03-19T13:34:36;16.10;62.00
49413;DHT22;35493;50.276;9.372;2023-03-19T13:37:13;16.10;62.00
49413;DHT22;35493;50.276;9.372;2023-03-19T13:39:48;16.00;61.60
49413;DHT22;35493;50.276;9.372;2023-03-19T13:42:34;16.00;61.50
49413;DHT22;35493;50.276;9.372;2023-03-19T13:45:33;16.10;61.80
49413;DHT22;35493;50.276;9.372;2023-03-19T13:48:34;16.10;62.60
49413;DHT22;35493;50.276;9.372;2023-03-19T13:51:23;16.00;61.70
49413;DHT22;35493;50.276;9.372;2023-03-19T13:54:04;16.10;62.10
49413;DHT22;35493;50.276;9.372;2023-03-19T13:57:03;16.10;62.40
49413;DHT22;35493;50.276;9.372;2023-03-19T13:59:39;16.10;62.40
49413;DHT22;35493;50.276;9.372;2023-03-19T14:02:46;16.20;63.20
49413;DHT22;35493;50.276;9.372;2023-03-19T14:05:21;16.20;62.60
49413;DHT22;35493;50.276;9.372;2023-03-19T14:07:55;16.20;62.40
49413;DHT22;35493;50.276;9.372;2023-03-19T14:10:30;16.20;61.70
49413;DHT22;35493;50.276;9.372;2023-03-19T14:13:06;16.10;61.70
49413;DHT22;35493;50.276;9.372;2023-03-19T14:15:47;16.10;61.40
49413;DHT22;35493;50.276;9.372;2023-03-19T14:18:21;16.10;61.90
49413;DHT22;35493;50.276;9.372;2023-03-19T14:20:59;16.10;60.80
49413;DHT22;35493;50.276;9.372;2023-03-19T14:23:33;16.20;61.00
49413;DHT22;35493;50.276;9.372;2023-03-19T14:26:15;16.20;61.30
49413;DHT22;35493;50.276;9.372;2023-03-19T14:28:54;16.20;61.40
49413;DHT22;35493;50.276;9.372;2023-03-19T14:31:36;16.20;60.70
49413;DHT22;35493;50.276;9.372;2023-03-19T14:34:20;16.10;61.60
49413;DHT22;35493;50.276;9.372;2023-03-19T14:36:59;16.00;60.20
49413;DHT22;35493;50.276;9.372;2023-03-19T14:39:37;16.00;60.50
49413;DHT22;35493;50.276;9.372;2023-03-19T14:42:18;15.90;60.10
49413;DHT22;35493;50.276;9.372;2023-03-19T14:45:25;15.90;60.40
49413;DHT22;35493;50.276;9.372;2023-03-19T14:48:10;15.90;60.40
49413;DHT22;35493;50.276;9.372;2023-03-19T14:51:08;15.80;60.50
49413;DHT22;35493;50.276;9.372;2023-03-19T14:53:47;15.80;60.20
49413;DHT22;35493;50.276;9.372;2023-03-19T14:56:26;15.70;60.20
49413;DHT22;35493;50.276;9.372;2023-03-19T14:59:03;15.70;60.30
49413;DHT22;35493;50.276;9.372;2023-03-19T15:01:40;15.60;61.00
49413;DHT22;35493;50.276;9.372;2023-03-19T15:04:19;15.60;61.00
49413;DHT22;35493;50.276;9.372;2023-03-19T15:06:55;15.60;61.50
49413;DHT22;35493;50.276;9.372;2023-03-19T15:09:32;15.60;61.60
49413;DHT22;35493;50.276;9.372;2023-03-19T15:12:27;15.60;62.30
49413;DHT22;35493;50.276;9.372;2023-03-19T15:18:08;15.50;62.30
49413;DHT22;35493;50.276;9.372;2023-03-19T15:20:45;15.50;63.00
49413;DHT22;35493;50.276;9.372;2023-03-19T15:23:21;15.40;63.90
49413;DHT22;35493;50.276;9.372;2023-03-19T15:25:59;15.40;64.80
49413;DHT22;35493;50.276;9.372;2023-03-19T15:28:44;15.20;65.60
49413;DHT22;35493;50.276;9.372;2023-03-19T15:31:19;15.20;66.00
49413;DHT22;35493;50.276;9.372;2023-03-19T15:33:53;15.10;66.40
49413;DHT22;35493;50.276;9.372;2023-03-19T15:36:30;15.10;66.90
49413;DHT22;35493;50.276;9.372;2023-03-19T15:39:06;15.00;67.00
49413;DHT22;35493;50.276;9.372;2023-03-19T15:41:45;14.90;67.50
49413;DHT22;35493;50.276;9.372;2023-03-19T15:44:22;14.90;67.60
49413;DHT22;35493;50.276;9.372;2023-03-19T15:47:01;14.90;67.60
49413;DHT22;35493;50.276;9.372;2023-03-19T15:49:45;14.90;67.70
49413;DHT22;35493;50.276;9.372;2023-03-19T15:52:19;14.80;67.90
49413;DHT22;35493;50.276;9.372;2023-03-19T15:54:53;14.90;68.30
49413;DHT22;35493;50.276;9.372;2023-03-19T15:57:28;14.80;68.10
49413;DHT22;35493;50.276;9.372;2023-03-19T16:00:03;14.90;68.30
49413;DHT22;35493;50.276;9.372;2023-03-19T16:02:41;14.90;67.60
49413;DHT22;35493;50.276;9.372;2023-03-19T16:05:23;14.80;67.40
49413;DHT22;35493;50.276;9.372;2023-03-19T16:07:58;14.70;67.50
49413;DHT22;35493;50.276;9.372;2023-03-19T16:10:39;14.70;67.60
49413;DHT22;35493;50.276;9.372;2023-03-19T16:13:36;14.70;67.60
49413;DHT22;35493;50.276;9.372;2023-03-19T16:16:18;14.80;67.60
49413;DHT22;35493;50.276;9.372;2023-03-19T16:18:53;14.90;67.60
49413;DHT22;35493;50.276;9.372;2023-03-19T16:21:33;14.90;68.10
49413;DHT22;35493;50.276;9.372;2023-03-19T16:24:21;14.90;68.20
49413;DHT22;35493;50.276;9.372;2023-03-19T16:26:58;14.90;67.90
49413;DHT22;35493;50.276;9.372;2023-03-19T16:29:38;14.90;68.30
49413;DHT22;35493;50.276;9.372;2023-03-19T16:32:20;14.80;68.50
49413;DHT22;35493;50.276;9.372;2023-03-19T16:34:55;14.80;68.20
49413;DHT22;35493;50.276;9.372;2023-03-19T16:37:37;14.70;68.20
49413;DHT22;35493;50.276;9.372;2023-03-19T16:40:42;14.60;68.70
49413;DHT22;35493;50.276;9.372;2023-03-19T16:43:18;14.60;68.70
49413;DHT22;35493;50.276;9.372;2023-03-19T16:46:03;14.60;68.80
49413;DHT22;35493;50.276;9.372;2023-03-19T16:48:37;14.50;68.90
49413;DHT22;35493;50.276;9.372;2023-03-19T16:51:18;14.40;69.30
49413;DHT22;35493;50.276;9.372;2023-03-19T16:53:53;14.40;69.40
49413;DHT22;35493;50.276;9.372;2023-03-19T16:56:26;14.40;69.10